Terminal Aerodrome Forecast
Issued by NWS

Home | Current Version | Previous Version | Text Only | Print | Product List | Glossary Off
Versions: 1 2 3 4 5 6 7 8 9 10 11 12 13 14 15 16 17 18

000
FTUS42 KMHX 201700 RRA
TAFPGV
TAF
KPGV 201744Z 2018/2118 03010G16KT P6SM BKN200
     FM202200 VRB03KT P6SM BKN040
     FM210600 VRB03KT 4SM BR BKN025
     FM211300 34005KT P6SM BKN200
      AMD LTD TO CLD VIS AND WIND=

USA.gov is the U.S. government's official web portal to all federal, state and local government web resources and services.